Time;durP1;ratioP1;P1;durP2;ratioP2;P2;SDS_P1;SDS_P2;PMS_P1;PMS_P2;Temp;Humidity;BMP_temperature;BMP_pressure;BME280_temperature;BME280_humidity;BME280_pressure;Samples;Min_cycle;Max_cycle;Signal;HPM_P1;HPM_P2
2022/04/18 00:02:12;;;;;;;19.77;10.67;;;6.70;99.70;;;;;;5056702;28;20083;-86
2022/04/18 00:04:38;;;;;;;17.37;10.67;;;6.80;99.60;;;;;;5073758;28;20059;-86
2022/04/18 00:07:04;;;;;;;18.73;10.38;;;6.80;99.60;;;;;;5056681;28;20033;-86
2022/04/18 00:09:30;;;;;;;19.63;9.88;;;6.80;99.90;;;;;;5074633;28;20411;-86
2022/04/18 00:11:57;;;;;;;17.10;9.40;;;6.80;99.90;;;;;;5073389;28;20098;-86
2022/04/18 00:14:23;;;;;;;18.90;10.85;;;6.80;99.90;;;;;;5074734;28;20040;-87
2022/04/18 00:16:49;;;;;;;18.90;10.30;;;6.80;99.90;;;;;;5056685;28;20048;-86
2022/04/18 00:19:17;;;;;;;21.00;10.63;;;6.70;99.90;;;;;;5073856;28;20040;-87
2022/04/18 00:21:45;;;;;;;18.88;10.32;;;6.70;99.90;;;;;;5055761;28;20044;-86
2022/04/18 00:24:11;;;;;;;19.97;10.53;;;6.70;99.90;;;;;;5056387;28;20120;-86
2022/04/18 00:26:42;;;;;;;18.23;10.70;;;6.70;99.90;;;;;;5073751;28;20139;-86
2022/04/18 00:29:07;;;;;;;19.90;10.97;;;6.70;99.90;;;;;;5056347;28;20050;-86
2022/04/18 00:31:33;;;;;;;19.10;10.90;;;6.60;99.90;;;;;;5055221;28;20048;-86
2022/04/18 00:33:59;;;;;;;19.73;11.00;;;6.60;99.90;;;;;;5073653;28;20135;-86
2022/04/18 00:36:24;;;;;;;17.67;10.00;;;6.60;99.90;;;;;;5074011;28;20098;-86
2022/04/18 00:38:50;;;;;;;19.43;11.17;;;6.50;99.90;;;;;;5055111;28;20127;-86
2022/04/18 00:41:16;;;;;;;18.77;10.40;;;6.50;99.90;;;;;;5056139;28;20411;-86
2022/04/18 00:43:47;;;;;;;17.17;10.40;;;6.50;99.90;;;;;;5073542;28;20063;-86
2022/04/18 00:46:14;;;;;;;20.73;10.73;;;6.40;99.90;;;;;;5055449;28;20139;-86
2022/04/18 00:48:40;;;;;;;19.87;10.17;;;6.40;99.90;;;;;;5055431;28;20416;-86
2022/04/18 00:51:09;;;;;;;18.87;10.97;;;7.50;99.90;;;;;;5073980;28;20048;-86
2022/04/18 00:53:37;;;;;;;20.87;10.63;;;6.30;99.90;;;;;;5072800;28;20400;-86
2022/04/18 00:56:04;;;;;;;17.77;10.20;;;6.40;99.90;;;;;;5073612;28;20044;-86
2022/04/18 00:58:30;;;;;;;18.57;10.77;;;6.40;99.90;;;;;;5055424;28;20115;-86
2022/04/18 01:00:56;;;;;;;19.33;10.40;;;6.30;99.90;;;;;;5054783;28;20148;-86
2022/04/18 01:03:22;;;;;;;17.60;10.47;;;6.30;99.90;;;;;;5054972;28;20086;-86
2022/04/18 01:05:48;;;;;;;18.63;10.47;;;6.30;99.90;;;;;;5055299;28;20044;-86
2022/04/18 01:08:14;;;;;;;19.47;9.93;;;6.20;99.90;;;;;;5072939;28;20074;-86
2022/04/18 01:10:40;;;;;;;18.47;10.83;;;6.20;99.90;;;;;;5073209;28;20098;-86
2022/04/18 01:13:08;;;;;;;18.73;10.07;;;6.10;99.90;;;;;;5055762;28;20072;-86
2022/04/18 01:15:34;;;;;;;17.23;9.77;;;6.60;99.90;;;;;;5054842;28;20044;-86
2022/04/18 01:17:59;;;;;;;18.63;10.03;;;6.00;99.90;;;;;;5073007;28;20446;-86
2022/04/18 01:20:34;;;;;;;18.57;10.50;;;6.00;99.90;;;;;;5073527;28;20057;-86
2022/04/18 01:23:01;;;;;;;18.93;10.00;;;5.90;99.90;;;;;;5054596;28;20040;-86
2022/04/18 01:30:56;;;;;;;18.80;10.18;;;5.90;99.90;;;;;;5054605;28;20048;-86
2022/04/18 01:33:22;;;;;;;19.83;10.30;;;5.80;99.90;;;;;;5073407;28;20369;-86
2022/04/18 01:35:47;;;;;;;21.90;10.37;;;5.70;99.90;;;;;;5054238;28;20040;-86
2022/04/18 01:38:13;;;;;;;19.60;10.63;;;5.70;99.90;;;;;;5055249;28;20105;-86
2022/04/18 01:40:39;;;;;;;17.77;9.83;;;5.60;99.90;;;;;;5054615;28;20052;-86
2022/04/18 01:43:05;;;;;;;19.80;9.73;;;5.90;99.90;;;;;;5072156;28;20047;-86
2022/04/18 01:45:31;;;;;;;18.07;10.10;;;5.40;99.90;;;;;;5054736;28;20056;-86
2022/04/18 01:47:57;;;;;;;18.83;10.00;;;5.50;99.90;;;;;;5054909;28;20040;-86
2022/04/18 01:50:23;;;;;;;17.90;9.87;;;5.40;99.90;;;;;;5072117;28;20139;-86
2022/04/18 01:52:48;;;;;;;16.97;9.77;;;5.40;99.90;;;;;;5054703;28;20044;-86
2022/04/18 01:55:14;;;;;;;17.40;10.03;;;5.30;99.90;;;;;;5072909;28;20505;-86
2022/04/18 01:57:39;;;;;;;17.43;10.60;;;5.40;99.90;;;;;;5049963;28;20060;-86
2022/04/18 02:00:05;;;;;;;21.33;10.37;;;5.30;99.90;;;;;;5052663;28;20472;-86
2022/04/18 02:02:31;;;;;;;19.00;10.20;;;5.30;99.90;;;;;;5049586;28;20044;-86
2022/04/18 02:04:56;;;;;;;18.23;10.67;;;5.30;99.90;;;;;;5049537;28;20412;-86
2022/04/18 02:07:22;;;;;;;19.87;9.67;;;5.30;99.90;;;;;;5052558;28;20125;-87
2022/04/18 02:09:48;;;;;;;18.23;10.10;;;5.30;99.90;;;;;;5052188;28;20103;-86
2022/04/18 02:12:13;;;;;;;20.73;10.67;;;5.30;99.90;;;;;;5051859;28;20381;-86
2022/04/18 02:14:39;;;;;;;17.13;9.53;;;5.30;99.90;;;;;;5050013;28;20505;-86
2022/04/18 02:17:04;;;;;;;19.57;9.43;;;5.30;99.90;;;;;;5051638;28;20044;-86
2022/04/18 02:19:30;;;;;;;17.87;10.17;;;5.20;99.90;;;;;;5050804;28;20040;-86
2022/04/18 02:21:56;;;;;;;17.50;8.97;;;5.20;99.90;;;;;;5052480;28;20084;-87
2022/04/18 02:24:22;;;;;;;18.00;10.33;;;5.30;99.90;;;;;;5033801;28;20083;-86
2022/04/18 02:26:47;;;;;;;20.17;9.87;;;5.30;99.90;;;;;;5052591;28;20480;-86
2022/04/18 02:29:13;;;;;;;17.10;9.77;;;5.20;99.90;;;;;;5052905;28;20045;-87
2022/04/18 02:34:22;;;;;;;19.38;10.32;;;5.20;99.90;;;;;;5052682;28;20045;-87
2022/04/18 02:36:48;;;;;;;18.30;10.10;;;5.10;99.90;;;;;;5052800;28;20104;-86
2022/04/18 02:39:14;;;;;;;16.40;9.33;;;5.00;99.90;;;;;;5051649;28;20048;-86
2022/04/18 02:41:40;;;;;;;17.83;9.83;;;5.00;99.90;;;;;;5050441;28;20045;-86
2022/04/18 02:44:05;;;;;;;17.30;9.50;;;5.00;99.90;;;;;;5051285;28;20033;-86
2022/04/18 02:46:31;;;;;;;17.80;9.87;;;4.90;99.90;;;;;;5050269;28;20132;-86
2022/04/18 02:48:57;;;;;;;16.67;10.17;;;5.00;99.90;;;;;;5050352;28;20507;-86
2022/04/18 02:51:27;;;;;;;18.03;9.80;;;4.90;99.90;;;;;;5051165;28;20049;-86
2022/04/18 02:53:54;;;;;;;17.00;9.70;;;4.90;99.90;;;;;;5049352;28;20546;-86
2022/04/18 02:56:20;;;;;;;18.10;10.13;;;4.90;99.90;;;;;;5050348;28;20049;-86
2022/04/18 02:58:45;;;;;;;18.47;9.87;;;4.90;99.90;;;;;;5051566;28;20528;-86
2022/04/18 03:01:11;;;;;;;18.03;9.77;;;4.90;99.90;;;;;;5051108;28;20053;-86
2022/04/18 03:03:36;;;;;;;17.77;9.80;;;4.90;99.90;;;;;;5050778;28;20053;-86
2022/04/18 03:06:02;;;;;;;17.40;9.63;;;4.80;99.90;;;;;;5050430;28;20045;-86
2022/04/18 03:08:27;;;;;;;17.30;9.70;;;4.80;99.90;;;;;;5051482;28;20130;-86
2022/04/18 03:11:10;;;;;;;18.23;10.00;;;4.70;99.90;;;;;;5051962;28;20045;-86
2022/04/18 03:13:37;;;;;;;19.23;9.73;;;4.70;99.90;;;;;;5050009;28;20761;-86
2022/04/18 03:16:04;;;;;;;19.23;10.20;;;4.70;99.90;;;;;;5051651;28;20108;-86
2022/04/18 03:18:30;;;;;;;20.33;9.30;;;4.70;99.90;;;;;;5050575;28;20041;-86
2022/04/18 03:20:57;;;;;;;18.67;9.83;;;4.70;99.90;;;;;;5049117;28;20045;-86
2022/04/18 03:23:23;;;;;;;17.80;9.70;;;4.70;99.90;;;;;;5052001;28;20033;-86
2022/04/18 03:25:49;;;;;;;17.47;9.53;;;4.60;99.90;;;;;;5052472;28;20052;-86
2022/04/18 03:28:14;;;;;;;18.17;10.30;;;4.60;99.90;;;;;;5053702;28;20480;-86
2022/04/18 03:30:40;;;;;;;17.63;9.83;;;4.60;99.90;;;;;;5054884;28;20067;-86
2022/04/18 03:33:06;;;;;;;18.43;9.73;;;4.60;99.90;;;;;;5055658;28;20045;-86
2022/04/18 03:35:32;;;;;;;16.70;9.57;;;4.60;99.90;;;;;;5054179;28;20045;-86
2022/04/18 03:40:42;;;;;;;18.48;9.95;;;4.60;99.90;;;;;;5053410;28;20492;-86
2022/04/18 03:43:07;;;;;;;19.33;10.00;;;4.50;99.90;;;;;;5054538;28;20041;-86
2022/04/18 03:45:33;;;;;;;18.60;10.03;;;4.50;99.90;;;;;;5054718;28;20052;-86
2022/04/18 03:47:58;;;;;;;21.37;9.80;;;4.50;99.90;;;;;;5053371;28;20099;-86
2022/04/18 03:50:24;;;;;;;18.37;10.20;;;4.40;99.90;;;;;;5053043;28;20053;-86
2022/04/18 03:52:49;;;;;;;18.80;10.00;;;4.40;99.90;;;;;;5053248;28;20037;-86
2022/04/18 03:55:15;;;;;;;20.17;9.70;;;4.30;99.90;;;;;;5054947;28;20072;-86
2022/04/18 03:57:41;;;;;;;19.80;10.63;;;4.30;99.90;;;;;;5052378;28;20053;-86
2022/04/18 04:00:09;;;;;;;21.10;9.87;;;4.20;99.90;;;;;;5053485;28;20079;-86
2022/04/18 04:02:34;;;;;;;19.00;9.90;;;4.20;99.90;;;;;;5062506;28;20048;-86
2022/04/18 04:05:00;;;;;;;20.63;10.10;;;4.20;99.90;;;;;;5071398;28;20042;-86
2022/04/18 04:07:26;;;;;;;16.33;9.63;;;4.20;99.90;;;;;;5073024;28;20177;-86
2022/04/18 04:09:53;;;;;;;17.50;9.43;;;4.10;99.90;;;;;;5072393;28;20148;-87
2022/04/18 04:12:23;;;;;;;16.83;9.30;;;4.70;99.90;;;;;;5073463;28;20048;-86
2022/04/18 04:14:52;;;;;;;17.17;9.60;;;4.10;99.90;;;;;;5074588;28;20056;-86
2022/04/18 04:17:18;;;;;;;17.27;9.67;;;4.10;99.90;;;;;;5072256;28;20045;-86
2022/04/18 04:19:44;;;;;;;18.30;10.03;;;4.00;99.90;;;;;;5074175;28;20048;-87
2022/04/18 04:22:10;;;;;;;17.23;9.40;;;4.00;99.90;;;;;;5074479;28;20043;-87
2022/04/18 04:24:36;;;;;;;17.67;9.40;;;3.90;99.90;;;;;;5075781;28;20529;-86
2022/04/18 04:27:02;;;;;;;18.83;10.00;;;3.90;99.90;;;;;;5094573;28;20040;-86
2022/04/18 04:29:28;;;;;;;19.60;10.23;;;3.80;99.90;;;;;;5076604;28;20112;-87
2022/04/18 04:31:53;;;;;;;16.97;9.10;;;3.80;99.90;;;;;;5075548;28;20083;-87
2022/04/18 04:34:19;;;;;;;18.43;9.57;;;3.70;99.90;;;;;;5076237;28;20052;-87
2022/04/18 04:36:44;;;;;;;17.63;9.80;;;3.70;99.90;;;;;;5094103;28;20048;-86
2022/04/18 04:39:10;;;;;;;17.17;9.63;;;3.70;99.90;;;;;;5093267;28;20399;-86
2022/04/18 04:41:36;;;;;;;17.60;9.60;;;3.60;99.90;;;;;;5075938;28;20101;-86
2022/04/18 04:44:03;;;;;;;17.20;9.40;;;3.60;99.90;;;;;;5094000;28;20127;-86
2022/04/18 04:46:28;;;;;;;18.17;9.80;;;3.60;99.90;;;;;;5075304;28;20052;-86
2022/04/18 04:48:54;;;;;;;15.77;9.07;;;3.50;99.90;;;;;;5075767;28;20067;-86
2022/04/18 04:51:20;;;;;;;17.80;9.57;;;3.50;99.90;;;;;;5076248;28;20142;-86
2022/04/18 04:53:46;;;;;;;18.77;10.43;;;3.50;99.90;;;;;;5074650;28;20134;-86
2022/04/18 04:56:12;;;;;;;17.33;9.30;;;3.50;99.90;;;;;;5075867;28;20093;-86
2022/04/18 04:58:37;;;;;;;18.00;9.90;;;3.50;99.90;;;;;;5093374;28;20043;-86
2022/04/18 05:01:03;;;;;;;17.17;9.70;;;3.50;99.90;;;;;;5074611;28;20100;-86
2022/04/18 05:03:28;;;;;;;17.47;9.57;;;3.50;99.90;;;;;;5093898;28;20494;-87
2022/04/18 05:05:54;;;;;;;19.43;10.00;;;3.50;99.90;;;;;;5074761;28;20048;-87
2022/04/18 05:08:20;;;;;;;19.63;10.13;;;3.50;99.90;;;;;;5094001;28;20044;-86
2022/04/18 05:10:45;;;;;;;16.13;9.10;;;3.50;99.90;;;;;;5075535;28;20055;-86
2022/04/18 05:13:11;;;;;;;19.00;9.27;;;3.60;99.90;;;;;;5074731;28;20044;-86
2022/04/18 05:15:37;;;;;;;17.43;9.30;;;3.60;99.90;;;;;;5093726;28;20105;-86
2022/04/18 05:18:03;;;;;;;16.97;9.13;;;3.70;99.90;;;;;;5093231;28;20488;-86
2022/04/18 05:20:28;;;;;;;17.80;9.83;;;3.70;99.90;;;;;;5092627;28;20052;-87
2022/04/18 05:22:55;;;;;;;17.10;9.70;;;3.80;99.90;;;;;;5093295;28;20072;-87
2022/04/18 05:25:21;;;;;;;21.73;10.67;;;3.90;99.90;;;;;;5075606;28;20037;-87
2022/04/18 05:27:47;;;;;;;20.43;10.10;;;3.90;99.90;;;;;;5073949;28;20123;-86
2022/04/18 05:30:14;;;;;;;19.97;10.23;;;4.00;99.90;;;;;;5095558;28;20104;-89
2022/04/18 05:32:39;;;;;;;17.33;9.43;;;4.00;99.90;;;;;;5108847;28;20098;-90
2022/04/18 05:35:06;;;;;;;18.97;10.07;;;4.90;99.90;;;;;;5097947;22;20048;-93
2022/04/18 05:37:32;;;;;;;19.50;10.53;;;4.20;99.90;;;;;;5068942;22;20053;-92
2022/04/18 05:40:51;;;;;;;20.33;10.77;;;4.20;99.90;;;;;;5055352;28;20187;-91
2022/04/18 05:43:32;;;;;;;19.63;10.23;;;4.10;99.90;;;;;;5033000;28;20059;-89
2022/04/18 05:46:00;;;;;;;17.33;10.17;;;4.60;99.90;;;;;;5052433;28;20439;-90
2022/04/18 05:48:35;;;;;;;16.87;9.30;;;4.50;99.90;;;;;;5071631;22;20044;-93
2022/04/18 05:51:04;;;;;;;18.10;8.73;;;4.60;99.90;;;;;;5094014;22;20656;-91
2022/04/18 05:53:35;;;;;;;18.47;9.60;;;4.80;99.90;;;;;;5057567;28;20044;-93
2022/04/18 05:56:50;;;;;;;15.27;8.57;;;5.10;99.90;;;;;;5079210;22;20080;-91
2022/04/18 05:59:16;;;;;;;16.40;8.90;;;4.90;99.90;;;;;;5054143;28;20105;-91
2022/04/18 06:01:50;;;;;;;16.43;8.90;;;5.20;99.90;;;;;;5055028;28;20040;-91
2022/04/18 06:04:31;;;;;;;15.70;8.67;;;5.70;99.90;;;;;;5074044;28;20044;-94
2022/04/18 06:06:59;;;;;;;18.93;9.23;;;5.30;99.90;;;;;;5056124;28;20090;-93
2022/04/18 06:09:40;;;;;;;16.40;9.20;;;5.70;99.90;;;;;;5056206;28;20045;-92
2022/04/18 06:12:18;;;;;;;17.67;9.33;;;5.60;99.90;;;;;;5091434;22;20098;-91
2022/04/18 06:14:54;;;;;;;14.63;8.30;;;5.90;99.90;;;;;;5075047;28;20076;-92
2022/04/18 06:17:25;;;;;;;25.97;9.20;;;5.90;99.90;;;;;;5054102;28;20088;-90
2022/04/18 06:20:00;;;;;;;16.60;9.43;;;5.90;99.90;;;;;;5071677;28;20048;-89
2022/04/18 06:22:25;;;;;;;17.03;9.10;;;5.90;99.90;;;;;;5070833;28;20029;-89
2022/04/18 06:24:51;;;;;;;15.97;8.53;;;7.30;99.90;;;;;;5053702;28;20480;-86
2022/04/18 06:27:29;;;;;;;15.83;8.40;;;6.20;99.90;;;;;;5072222;28;20040;-88
2022/04/18 06:30:10;;;;;;;16.23;8.73;;;6.40;99.90;;;;;;5071975;28;20488;-92
2022/04/18 06:32:45;;;;;;;15.90;8.57;;;6.60;99.90;;;;;;5053838;28;20135;-90
2022/04/18 06:35:13;;;;;;;15.50;8.13;;;7.40;99.90;;;;;;5054281;28;20083;-89
2022/04/18 06:37:42;;;;;;;14.85;8.27;;;6.60;99.90;;;;;;5059082;28;20041;-88
2022/04/18 06:40:17;;;;;;;15.40;8.50;;;6.90;99.90;;;;;;5054776;28;20395;-88
2022/04/18 06:42:55;;;;;;;14.70;7.93;;;7.30;99.90;;;;;;5072626;28;20041;-88
2022/04/18 06:45:24;;;;;;;15.40;8.10;;;7.30;99.90;;;;;;5054148;28;20049;-87
2022/04/18 06:48:02;;;;;;;16.13;8.27;;;8.90;99.90;;;;;;5072122;28;20102;-87
2022/04/18 06:50:34;;;;;;;15.37;7.63;;;7.30;99.90;;;;;;5053750;28;20048;-89
2022/04/18 06:53:13;;;;;;;15.50;7.83;;;7.80;99.90;;;;;;5053765;28;20098;-88
2022/04/18 06:58:32;;;;;;;14.13;7.57;;;8.60;99.90;;;;;;5072078;28;20055;-92
2022/04/18 07:00:58;;;;;;;14.70;7.75;;;8.60;99.90;;;;;;5056308;28;20049;-89
2022/04/18 07:03:38;;;;;;;14.23;7.60;;;8.70;99.90;;;;;;5076256;28;20182;-85
2022/04/18 07:06:07;;;;;;;13.95;7.55;;;8.90;99.90;;;;;;5057721;28;20068;-86
2022/04/18 07:08:32;;;;;;;14.25;7.72;;;9.60;99.90;;;;;;5058506;28;20044;-87
2022/04/18 07:10:58;;;;;;;14.85;7.78;;;9.20;99.90;;;;;;5068696;28;20796;-87
2022/04/18 07:13:24;;;;;;;13.20;7.15;;;9.60;99.90;;;;;;5055461;28;20049;-88
2022/04/18 07:15:49;;;;;;;14.20;7.13;;;9.70;99.90;;;;;;5055302;28;20052;-87
2022/04/18 07:18:15;;;;;;;14.15;7.55;;;9.50;99.90;;;;;;5055481;28;20033;-88
2022/04/18 07:20:56;;;;;;;14.57;7.63;;;10.30;99.90;;;;;;5033060;28;20056;-87
2022/04/18 07:23:33;;;;;;;12.98;7.63;;;9.90;99.90;;;;;;5053921;28;20037;-88
2022/04/18 07:26:08;;;;;;;14.23;7.18;;;9.90;99.90;;;;;;5055442;28;20041;-87
2022/04/18 07:28:47;;;;;;;12.88;7.13;;;10.30;99.90;;;;;;5054461;28;20049;-88
2022/04/18 07:31:21;;;;;;;13.30;7.20;;;10.10;99.90;;;;;;5034645;28;20103;-88
2022/04/18 07:33:50;;;;;;;13.90;7.22;;;10.30;99.90;;;;;;5033313;28;20042;-88
2022/04/18 07:36:16;;;;;;;12.93;6.72;;;10.80;99.90;;;;;;5049568;28;20045;-91
2022/04/18 07:41:29;;;;;;;13.38;6.68;;;10.60;99.90;;;;;;5049912;28;20125;-89
2022/04/18 07:44:07;;;;;;;12.25;6.47;;;10.80;99.90;;;;;;5049029;28;20552;-90
2022/04/18 07:46:33;;;;;;;13.50;7.25;;;11.00;99.90;;;;;;5044003;28;20446;-92
2022/04/18 07:48:59;;;;;;;15.45;7.10;;;11.90;99.90;;;;;;5035261;28;20128;-88
2022/04/18 07:51:42;;;;;;;13.23;6.85;;;11.90;99.90;;;;;;5054836;28;20511;-89
2022/04/18 07:54:38;;;;;;;12.43;6.60;;;11.60;99.90;;;;;;5055144;28;20051;-88
2022/04/18 07:57:18;;;;;;;11.82;6.72;;;12.50;99.90;;;;;;5055132;28;20110;-88
2022/04/18 07:59:53;;;;;;;12.57;6.82;;;12.50;99.90;;;;;;5054733;28;20041;-88
2022/04/18 08:02:33;;;;;;;13.05;6.90;;;11.60;99.90;;;;;;5036371;28;20048;-88
2022/04/18 08:05:06;;;;;;;12.52;6.93;;;11.70;99.90;;;;;;5036673;28;20136;-88
2022/04/18 08:07:38;;;;;;;11.02;6.30;;;12.10;99.90;;;;;;5054741;28;20041;-89
2022/04/18 08:10:04;;;;;;;13.07;6.68;;;12.00;99.90;;;;;;5036213;28;20087;-88
2022/04/18 08:12:41;;;;;;;13.02;6.80;;;12.20;99.90;;;;;;5053379;28;20048;-89
2022/04/18 08:15:08;;;;;;;12.60;6.55;;;12.10;97.70;;;;;;5037942;28;20040;-92
2022/04/18 08:17:34;;;;;;;14.98;6.30;;;12.40;99.90;;;;;;5036704;28;20439;-89
2022/04/18 08:20:00;;;;;;;12.73;6.20;;;12.20;99.90;;;;;;5037563;28;20045;-89
2022/04/18 08:22:41;;;;;;;11.68;5.80;;;12.40;99.50;;;;;;5055014;28;20060;-92
2022/04/18 08:25:10;;;;;;;11.88;6.30;;;13.90;99.00;;;;;;5048527;28;20033;-89
2022/04/18 08:27:36;;;;;;;12.25;6.32;;;12.20;98.30;;;;;;5028423;28;20060;-89
2022/04/18 08:30:02;;;;;;;11.68;6.07;;;12.90;98.20;;;;;;5049595;28;20029;-90
2022/04/18 08:32:40;;;;;;;12.32;6.00;;;12.60;98.10;;;;;;5054396;28;20060;-88
2022/04/18 08:35:07;;;;;;;12.43;6.35;;;13.10;96.60;;;;;;5045570;28;20133;-88
2022/04/18 08:37:34;;;;;;;11.68;6.10;;;13.10;96.70;;;;;;5034448;28;20068;-89
2022/04/18 08:40:09;;;;;;;11.88;6.15;;;13.90;97.00;;;;;;5053248;28;20041;-89
2022/04/18 08:42:37;;;;;;;10.82;5.93;;;13.40;96.80;;;;;;5052636;28;20095;-91
2022/04/18 08:45:04;;;;;;;11.32;5.70;;;13.60;96.90;;;;;;5055788;28;20079;-91
2022/04/18 08:53:50;;;;;;;12.10;5.60;;;14.20;94.30;;;;;;5033117;28;20041;-89
2022/04/18 08:56:16;;;;;;;11.10;5.88;;;13.90;94.20;;;;;;5035250;28;20056;-87
2022/04/18 08:58:42;;;;;;;12.70;7.18;;;13.90;91.50;;;;;;5052536;28;20041;-87
2022/04/18 09:01:07;;;;;;;12.68;6.78;;;14.00;92.80;;;;;;5053169;28;20040;-89
2022/04/18 09:03:39;;;;;;;10.73;5.95;;;14.10;92.20;;;;;;5035562;28;20041;-91
2022/04/18 09:06:14;;;;;;;12.55;5.75;;;13.70;91.90;;;;;;5034596;28;20045;-89
2022/04/18 09:08:58;;;;;;;11.18;6.22;;;14.10;92.00;;;;;;5035079;28;20049;-89
2022/04/18 09:11:28;;;;;;;;;;;14.30;90.40;;;;;;5062228;28;20053;-89
2022/04/18 09:14:06;;;;;;;12.00;6.57;;;14.50;90.10;;;;;;5072910;28;19926;-89
2022/04/18 09:16:32;;;;;;;13.55;7.32;;;14.60;91.80;;;;;;5055643;28;20048;-91
2022/04/18 09:19:12;;;;;;;14.15;8.18;;;14.70;91.50;;;;;;5056073;28;20047;-91
2022/04/18 09:22:01;;;;;;;15.30;8.50;;;14.90;88.50;;;;;;5055496;28;20411;-90
2022/04/18 09:24:32;;;;;;;13.45;7.68;;;15.00;90.40;;;;;;5072574;28;20044;-89
2022/04/18 09:27:06;;;;;;;12.80;6.45;;;16.00;90.30;;;;;;5072343;28;20044;-88
2022/04/18 09:30:00;;;;;;;11.48;6.60;;;16.00;85.90;;;;;;5055580;28;20074;-88
2022/04/18 09:32:29;;;;;;;;;;;16.20;85.30;;;;;;5055753;28;20412;-87
2022/04/18 09:35:05;;;;;;;12.73;6.30;;;15.30;84.60;;;;;;5053553;28;19987;-88
2022/04/18 09:37:45;;;;;;;13.85;7.05;;;15.50;84.80;;;;;;5073344;28;20445;-87
2022/04/18 09:40:23;;;;;;;12.00;6.53;;;14.90;83.50;;;;;;5054527;28;20083;-87
2022/04/18 09:43:09;;;;;;;10.90;6.30;;;15.70;84.70;;;;;;5072383;28;20495;-88
2022/04/18 09:45:47;;;;;;;;;;;;;;;;;;;;;
2022/04/18 09:48:16;;;;;;;11.45;6.28;;;15.80;85.80;;;;;;5053669;28;20082;-87
2022/04/18 09:51:00;;;;;;;12.35;6.60;;;16.50;85.70;;;;;;5055130;28;20045;-87
2022/04/18 09:53:41;;;;;;;11.50;6.78;;;16.30;80.50;;;;;;5072518;28;20048;-87
2022/04/18 09:56:21;;;;;;;12.95;7.60;;;16.70;79.90;;;;;;5051819;28;20078;-88
2022/04/18 09:58:58;;;;;;;10.40;5.75;;;16.10;78.20;;;;;;5072900;28;20051;-88
2022/04/18 10:01:44;;;;;;;10.55;5.57;;;15.70;76.30;;;;;;5067618;28;20044;-87
2022/04/18 10:04:29;;;;;;;11.00;6.63;;;16.80;80.00;;;;;;5057890;28;20040;-87
2022/04/18 10:07:16;;;;;;;11.32;6.60;;;16.60;80.50;;;;;;5058991;28;20369;-90
2022/04/18 10:09:57;;;;;;;12.90;6.13;;;17.00;79.70;;;;;;5072371;28;20047;-91
2022/04/18 10:12:49;;;;;;;11.05;6.28;;;17.90;77.00;;;;;;5055010;28;20048;-88
2022/04/18 10:15:30;;;;;;;10.68;5.80;;;17.20;76.50;;;;;;5072663;28;20492;-90
2022/04/18 10:18:07;;;;;;;11.43;5.95;;;17.50;76.30;;;;;;5054191;28;20091;-90
2022/04/18 10:21:06;;;;;;;10.95;6.35;;;17.70;75.40;;;;;;5079655;22;20063;-91
2022/04/18 10:24:13;;;;;;;12.73;6.95;;;17.90;75.30;;;;;;5053394;28;20043;-89
2022/04/18 10:27:25;;;;;;;10.85;6.00;;;18.00;73.00;;;;;;5072899;28;20055;-91
2022/04/18 10:29:54;;;;;;;11.05;5.70;;;18.20;75.30;;;;;;5071770;28;20094;-90
2022/04/18 10:32:25;;;;;;;10.35;5.00;;;18.40;75.00;;;;;;5072766;28;20072;-89
2022/04/18 10:35:07;;;;;;;11.10;5.07;;;18.50;74.10;;;;;;5072856;28;20385;-89
2022/04/18 10:37:43;;;;;;;9.30;4.60;;;19.00;71.30;;;;;;5076907;28;20041;-90
2022/04/18 10:40:09;;;;;;;10.90;5.50;;;19.10;71.40;;;;;;5049318;28;20484;-90
2022/04/18 10:42:41;;;;;;;10.75;4.85;;;19.10;70.40;;;;;;5047185;28;20041;-89
2022/04/18 10:45:19;;;;;;;9.90;4.80;;;19.20;70.60;;;;;;5064790;28;20510;-89
2022/04/18 10:48:08;;;;;;;10.20;5.32;;;19.40;68.10;;;;;;5047551;28;20041;-90
2022/04/18 10:50:50;;;;;;;9.85;4.80;;;19.40;66.20;;;;;;5041198;28;20131;-91
2022/04/18 10:53:35;;;;;;;9.48;4.57;;;18.30;64.50;;;;;;5065710;28;20531;-84
2022/04/18 10:56:00;;;;;;;9.73;4.47;;;19.50;65.30;;;;;;5058182;28;20067;-88
2022/04/18 10:58:29;;;;;;;9.40;4.63;;;19.30;65.00;;;;;;5075601;28;20048;-88
2022/04/18 11:00:59;;;;;;;10.00;4.40;;;20.70;64.80;;;;;;5076294;28;20070;-87
2022/04/18 11:03:46;;;;;;;9.25;4.30;;;20.60;65.30;;;;;;5077338;28;20115;-88
2022/04/18 11:06:18;;;;;;;10.25;4.35;;;20.20;63.20;;;;;;5075511;28;20039;-87
2022/04/18 11:09:00;;;;;;;9.20;4.78;;;20.30;64.00;;;;;;5057632;28;20040;-88
2022/04/18 11:11:46;;;;;;;10.85;4.97;;;20.30;60.10;;;;;;5057982;28;20032;-87
2022/04/18 11:14:20;;;;;;;9.02;4.75;;;20.30;62.40;;;;;;5057987;28;20048;-88
2022/04/18 11:16:46;;;;;;;10.30;4.93;;;20.40;62.20;;;;;;5057799;28;20487;-88
2022/04/18 11:19:15;;;;;;;10.20;4.70;;;20.40;62.10;;;;;;5057098;28;20041;-88
2022/04/18 11:21:56;;;;;;;13.48;5.15;;;20.50;62.00;;;;;;5057595;28;20056;-88
2022/04/18 11:24:43;;;;;;;9.68;5.22;;;20.50;60.70;;;;;;5075849;28;20036;-88
2022/04/18 11:27:11;;;;;;;11.32;4.93;;;20.40;59.20;;;;;;5056920;28;20099;-88
2022/04/18 11:29:38;;;;;;;9.98;5.30;;;20.40;60.90;;;;;;5057411;28;20047;-88
2022/04/18 11:32:05;;;;;;;10.02;5.28;;;20.40;59.30;;;;;;5057437;28;20052;-88
2022/04/18 11:34:32;;;;;;;9.93;4.85;;;20.50;59.20;;;;;;5056668;28;20093;-88
2022/04/18 11:37:00;;;;;;;9.65;5.13;;;20.60;59.30;;;;;;5075340;28;20040;-88
2022/04/18 11:39:42;;;;;;;9.77;4.68;;;20.90;59.70;;;;;;5075099;28;20055;-88
2022/04/18 11:42:08;;;;;;;9.25;5.03;;;21.10;60.10;;;;;;5075203;28;20495;-89
2022/04/18 11:44:41;;;;;;;9.35;4.88;;;21.40;59.70;;;;;;5057190;28;20599;-88
2022/04/18 11:47:09;;;;;;;9.90;5.20;;;21.30;58.70;;;;;;5056296;28;20170;-88
2022/04/18 11:49:35;;;;;;;9.82;5.10;;;21.50;59.40;;;;;;5075318;28;20040;-88
2022/04/18 11:52:01;;;;;;;8.95;5.03;;;21.70;59.90;;;;;;5075159;28;20515;-88
2022/04/18 11:54:27;;;;;;;10.70;5.38;;;21.70;58.50;;;;;;5074483;28;20037;-86
2022/04/18 11:57:00;;;;;;;9.20;5.30;;;21.50;58.10;;;;;;5074926;28;20442;-86
2022/04/18 11:59:29;;;;;;;10.45;4.90;;;21.40;57.10;;;;;;5057680;28;20534;-86
2022/04/18 12:07:28;;;;;;;9.60;4.90;;;21.90;57.40;;;;;;5057383;28;20114;-88
2022/04/18 12:09:54;;;;;;;10.25;4.75;;;21.70;57.80;;;;;;5073752;28;20503;-88
2022/04/18 12:12:30;;;;;;;9.48;5.22;;;21.80;56.70;;;;;;5075020;28;20129;-88
2022/04/18 12:15:00;;;;;;;9.32;5.22;;;21.70;56.20;;;;;;5072726;28;20040;-88
2022/04/18 12:17:26;;;;;;;8.48;4.47;;;21.50;55.60;;;;;;5057279;28;20505;-88
2022/04/18 12:19:52;;;;;;;9.75;5.07;;;21.60;55.30;;;;;;5074665;28;20091;-88
2022/04/18 12:22:24;;;;;;;8.90;4.72;;;21.70;55.20;;;;;;5074197;28;20053;-88
2022/04/18 12:24:50;;;;;;;8.43;4.37;;;21.90;55.60;;;;;;5074555;28;20048;-88
2022/04/18 12:27:16;;;;;;;9.50;4.55;;;22.00;55.40;;;;;;5056746;28;20055;-86
2022/04/18 12:29:45;;;;;;;9.27;4.90;;;22.20;55.50;;;;;;5073622;28;20044;-86
2022/04/18 12:32:25;;;;;;;8.63;4.47;;;22.20;54.60;;;;;;5056540;28;20045;-86
2022/04/18 12:34:51;;;;;;;8.93;4.80;;;22.60;53.80;;;;;;5056488;28;20044;-88
2022/04/18 12:37:16;;;;;;;9.57;4.50;;;22.20;54.10;;;;;;5056394;28;20127;-88
2022/04/18 12:39:42;;;;;;;9.45;4.60;;;22.30;54.00;;;;;;5073591;28;20553;-88
2022/04/18 12:42:09;;;;;;;11.18;4.85;;;22.40;54.00;;;;;;5074954;28;20084;-88
2022/04/18 12:44:35;;;;;;;9.40;4.60;;;22.20;52.60;;;;;;5073691;28;20043;-88
2022/04/18 12:47:19;;;;;;;9.45;4.93;;;22.40;52.80;;;;;;5074033;28;20447;-88
2022/04/18 12:50:05;;;;;;;8.55;4.45;;;22.20;51.00;;;;;;5056295;28;20044;-88
2022/04/18 12:52:31;;;;;;;10.20;5.00;;;22.20;52.20;;;;;;5056274;28;20056;-88
2022/04/18 12:55:07;;;;;;;8.43;4.82;;;22.00;52.70;;;;;;5073681;28;20159;-88
2022/04/18 12:57:33;;;;;;;9.55;5.03;;;22.40;54.10;;;;;;5073047;28;20480;-87
2022/04/18 13:00:14;;;;;;;8.70;4.45;;;22.50;54.40;;;;;;5073013;28;20173;-87
2022/04/18 13:02:54;;;;;;;9.02;5.05;;;22.50;52.40;;;;;;5074400;28;20048;-88
2022/04/18 13:05:24;;;;;;;9.00;4.60;;;22.60;53.90;;;;;;5075433;28;20119;-88
2022/04/18 13:07:50;;;;;;;9.50;5.00;;;22.60;52.30;;;;;;5055629;28;20041;-88
2022/04/18 13:10:15;;;;;;;9.52;4.68;;;22.60;53.00;;;;;;5056174;28;20086;-88
2022/04/18 13:12:41;;;;;;;10.50;4.70;;;22.70;53.10;;;;;;5072632;28;20483;-89
2022/04/18 13:15:08;;;;;;;8.95;4.60;;;22.80;52.60;;;;;;5056212;28;20227;-89
2022/04/18 13:17:35;;;;;;;8.75;4.60;;;22.80;52.10;;;;;;5055686;28;20052;-86
2022/04/18 13:20:07;;;;;;;9.13;4.80;;;22.90;52.60;;;;;;5054295;28;20440;-89
2022/04/18 13:22:33;;;;;;;9.68;4.78;;;22.80;51.60;;;;;;5073766;28;20044;-89
2022/04/18 13:24:59;;;;;;;9.93;4.97;;;23.40;52.10;;;;;;5070575;28;20086;-95
2022/04/18 13:27:28;;;;;;;8.85;4.70;;;23.10;51.90;;;;;;5062869;28;20041;-90
2022/04/18 13:29:54;;;;;;;149.95;13.07;;;23.00;51.60;;;;;;5072372;28;20052;-93